Time;durP1;ratioP1;P1;durP2;ratioP2;P2;SDS_P1;SDS_P2;PMS_P1;PMS_P2;Temp;Humidity;BMP_temperature;BMP_pressure;BME280_temperature;BME280_humidity;BME280_pressure;Samples;Min_cycle;Max_cycle;Signal;HPM_P1;HPM_P2
2021/07/27 00:00:44;;;;;;;4.90;4.28;;;;;;;20.55;68.59;100130.53;4989649;28;20061;-81
2021/07/27 00:03:11;;;;;;;5.65;4.13;;;;;;;20.52;68.51;100124.56;4987814;28;20050;-82
2021/07/27 00:05:38;;;;;;;5.30;3.95;;;;;;;20.51;68.53;100122.88;4985941;28;20062;-82
2021/07/27 00:08:25;;;;;;;4.60;3.78;;;;;;;20.48;68.52;100128.53;4977558;28;20057;-81
2021/07/27 00:10:53;;;;;;;6.03;3.83;;;;;;;20.44;68.53;100132.50;4988722;28;20571;-81
2021/07/27 00:13:20;;;;;;;4.28;3.80;;;;;;;20.41;68.40;100122.03;4991040;28;20049;-82
2021/07/27 00:15:47;;;;;;;6.10;3.63;;;;;;;20.39;68.75;100130.25;4989492;28;20046;-80
2021/07/27 00:18:14;;;;;;;4.50;4.10;;;;;;;20.37;68.95;100129.53;4992097;28;20042;-81
2021/07/27 00:20:40;;;;;;;5.82;4.20;;;;;;;20.35;69.07;100128.78;4991927;28;20046;-81
2021/07/27 00:23:07;;;;;;;4.45;3.88;;;;;;;20.34;68.83;100127.06;4988152;28;20039;-81
2021/07/27 00:25:34;;;;;;;4.40;3.85;;;;;;;20.31;68.94;100128.19;4992294;28;20121;-81
2021/07/27 00:28:01;;;;;;;4.25;3.85;;;;;;;20.31;68.88;100130.88;4991062;28;20050;-80
2021/07/27 00:30:27;;;;;;;4.53;3.83;;;;;;;20.30;69.42;100131.06;4989735;28;20050;-81
2021/07/27 00:32:54;;;;;;;6.72;3.97;;;;;;;20.26;69.21;100125.09;4990211;28;20084;-80
2021/07/27 00:35:21;;;;;;;6.55;3.85;;;;;;;20.26;68.99;100118.88;4988825;28;20047;-82
2021/07/27 00:37:58;;;;;;;6.55;3.92;;;;;;;20.23;69.00;100127.22;4988899;28;20061;-80
2021/07/27 00:40:24;;;;;;;8.68;4.47;;;;;;;20.23;69.38;100137.97;4993270;28;20073;-81
2021/07/27 00:42:51;;;;;;;5.82;3.78;;;;;;;20.21;69.40;100140.81;4986465;28;20046;-82
2021/07/27 00:45:18;;;;;;;4.80;3.97;;;;;;;20.16;69.62;100136.81;4973153;28;20057;-80
2021/07/27 00:47:44;;;;;;;7.28;3.92;;;;;;;20.16;69.38;100134.13;4983616;28;20158;-81
2021/07/27 00:50:12;;;;;;;4.38;3.63;;;;;;;20.14;69.54;100133.44;4991291;28;20054;-81
2021/07/27 00:52:40;;;;;;;4.88;4.13;;;;;;;20.11;69.77;100133.72;4994800;28;20054;-81
2021/07/27 00:55:07;;;;;;;6.10;3.97;;;;;;;20.13;69.69;100139.81;4992072;28;20617;-81
2021/07/27 00:57:34;;;;;;;5.18;4.07;;;;;;;20.13;70.16;100140.66;4996950;28;20137;-79
2021/07/27 01:00:01;;;;;;;4.47;3.58;;;;;;;20.12;69.75;100138.13;4993510;28;20054;-81
2021/07/27 01:02:30;;;;;;;5.38;4.05;;;;;;;20.10;69.84;100146.31;4989707;28;20046;-80
2021/07/27 01:04:58;;;;;;;4.35;3.78;;;;;;;20.09;70.13;100151.81;4987991;28;20056;-80
2021/07/27 01:07:26;;;;;;;6.45;3.88;;;;;;;20.07;70.13;100156.47;4993279;28;20048;-81
2021/07/27 01:09:54;;;;;;;5.72;3.78;;;;;;;20.05;70.36;100148.56;4989841;28;20140;-80
2021/07/27 01:12:20;;;;;;;4.75;3.75;;;;;;;20.03;70.10;100152.38;4994536;28;20050;-80
2021/07/27 01:14:47;;;;;;;5.90;3.83;;;;;;;20.02;70.50;100156.03;4994205;28;20059;-79
2021/07/27 01:17:14;;;;;;;4.03;3.40;;;;;;;20.00;70.28;100150.78;4996846;28;20085;-79
2021/07/27 01:20:24;;;;;;;6.10;3.70;;;;;;;19.98;70.16;100147.44;4996730;28;20405;-79
2021/07/27 01:39:22;;;;;;;3.97;3.53;;;;;;;19.83;71.03;100146.13;4993722;28;20062;-81
2021/07/27 01:42:09;;;;;;;6.85;4.30;;;;;;;19.81;71.00;100143.56;4991791;28;20046;-82
2021/07/27 01:44:57;;;;;;;5.07;4.05;;;;;;;19.79;71.16;100142.84;4989333;28;20052;-80
2021/07/27 01:47:24;;;;;;;4.80;4.20;;;;;;;19.76;71.25;100143.13;4993367;28;20051;-82
2021/07/27 01:49:51;;;;;;;6.47;3.88;;;;;;;19.76;71.15;100145.78;4994309;28;20082;-81
2021/07/27 01:52:20;;;;;;;5.40;4.00;;;;;;;19.75;71.45;100148.63;4990578;28;20053;-81
2021/07/27 01:54:51;;;;;;;6.38;3.95;;;;;;;19.76;71.60;100147.63;4990608;28;20113;-82
2021/07/27 01:57:27;;;;;;;6.28;4.60;;;;;;;19.77;71.30;100141.28;4991374;28;20077;-81
2021/07/27 02:00:06;;;;;;;6.35;4.30;;;;;;;19.77;71.22;100147.50;4990938;28;20102;-81
2021/07/27 02:02:33;;;;;;;4.35;3.92;;;;;;;19.78;71.43;100142.97;4994475;28;20057;-80
2021/07/27 02:05:00;;;;;;;4.15;3.75;;;;;;;19.74;71.34;100138.84;4993022;28;20056;-81
2021/07/27 02:07:27;;;;;;;5.43;4.15;;;;;;;19.70;71.74;100140.97;4993263;28;20065;-81
2021/07/27 02:10:01;;;;;;;6.07;4.03;;;;;;;19.66;71.80;100136.00;4997848;28;20093;-82
2021/07/27 02:12:36;;;;;;;6.90;4.25;;;;;;;19.61;72.16;100144.47;4997311;28;20089;-79
2021/07/27 02:15:05;;;;;;;6.13;4.60;;;;;;;19.60;72.32;100146.31;4993729;28;20049;-81
2021/07/27 02:17:33;;;;;;;5.10;4.20;;;;;;;19.57;72.08;100145.72;4993604;28;20445;-81
2021/07/27 02:20:00;;;;;;;5.68;4.22;;;;;;;19.52;72.46;100145.25;4989039;28;20074;-82
2021/07/27 02:22:33;;;;;;;9.10;5.00;;;;;;;19.52;72.39;100146.13;4971506;28;20630;-82
2021/07/27 02:25:05;;;;;;;5.57;4.00;;;;;;;19.51;72.58;100148.97;4985713;28;20081;-82
2021/07/27 02:27:32;;;;;;;15.85;12.30;;;;;;;19.49;72.93;100146.41;4990779;28;20047;-81
2021/07/27 02:30:01;;;;;;;6.72;4.45;;;;;;;19.48;72.55;100149.19;4972908;28;20054;-83
2021/07/27 02:32:28;;;;;;;4.93;4.43;;;;;;;19.44;72.53;100147.75;4987399;28;20066;-82
2021/07/27 02:34:55;;;;;;;6.15;4.63;;;;;;;19.42;73.03;100155.09;4988893;28;20053;-82
2021/07/27 02:37:24;;;;;;;5.63;4.10;;;;;;;19.40;73.02;100157.06;4990563;28;20042;-82
2021/07/27 02:39:51;;;;;;;6.25;4.35;;;;;;;19.38;73.17;100153.66;4989993;28;20054;-82
2021/07/27 02:42:17;;;;;;;6.60;4.40;;;;;;;19.32;73.66;100154.22;4991356;28;20134;-82
2021/07/27 02:44:44;;;;;;;6.20;4.47;;;;;;;19.27;73.75;100152.75;4995718;28;20058;-82
2021/07/27 02:47:10;;;;;;;6.75;4.53;;;;;;;19.24;73.81;100146.81;4993653;28;20091;-82
2021/07/27 02:49:37;;;;;;;6.07;4.30;;;;;;;19.19;74.06;100147.22;4997366;28;20050;-81
2021/07/27 02:52:06;;;;;;;5.07;4.57;;;;;;;19.18;74.58;100147.34;4999069;28;20034;-83
2021/07/27 02:54:35;;;;;;;6.55;4.40;;;;;;;19.17;74.97;100140.28;4996241;28;20050;-82
2021/07/27 02:57:02;;;;;;;5.13;4.25;;;;;;;19.15;75.21;100143.09;4999801;28;20032;-83
2021/07/27 02:59:29;;;;;;;6.65;4.50;;;;;;;19.14;75.36;100152.13;4999365;28;20046;-84
2021/07/27 03:01:57;;;;;;;6.07;4.47;;;;;;;19.13;75.43;100155.78;5004637;28;20117;-83
2021/07/27 03:04:24;;;;;;;5.05;4.03;;;;;;;19.10;75.37;100149.84;5007310;28;20031;-84
2021/07/27 03:06:53;;;;;;;8.30;4.43;;;;;;;19.11;75.64;100148.84;5009932;28;20050;-81
2021/07/27 03:09:31;;;;;;;7.60;5.00;;;;;;;19.08;75.98;100149.13;5009126;28;20046;-80
2021/07/27 03:11:57;;;;;;;6.63;4.70;;;;;;;19.05;76.27;100152.91;5008602;28;20082;-84
2021/07/27 03:14:25;;;;;;;6.75;4.68;;;;;;;19.06;76.44;100159.13;4995494;28;20049;-84
2021/07/27 03:16:58;;;;;;;5.47;4.90;;;;;;;19.02;76.43;100155.88;5005742;28;20058;-81
2021/07/27 03:19:25;;;;;;;5.38;4.60;;;;;;;18.99;77.11;100152.59;5007491;28;20054;-84
2021/07/27 03:21:52;;;;;;;7.25;4.45;;;;;;;18.98;77.16;100162.47;5010071;28;20102;-82
2021/07/27 03:24:19;;;;;;;7.20;4.88;;;;;;;18.96;77.34;100161.75;4997299;28;20113;-83
2021/07/27 03:26:45;;;;;;;7.80;4.93;;;;;;;18.94;77.50;100166.41;5010846;28;20142;-80
2021/07/27 03:29:14;;;;;;;6.97;5.05;;;;;;;18.93;77.85;100170.06;5004923;28;20049;-83
2021/07/27 03:31:41;;;;;;;8.05;5.07;;;;;;;18.86;78.00;100166.22;5011292;28;20576;-80
2021/07/27 03:34:08;;;;;;;5.70;4.80;;;;;;;18.85;78.20;100167.19;5009259;28;20110;-82
2021/07/27 03:36:34;;;;;;;5.47;4.50;;;;;;;18.83;78.56;100169.16;5002049;28;20081;-80
2021/07/27 03:39:01;;;;;;;8.10;5.00;;;;;;;18.81;78.75;100161.22;4996211;28;20090;-79
2021/07/27 03:41:29;;;;;;;6.68;4.97;;;;;;;18.80;78.73;100166.72;5001449;28;20056;-80
2021/07/27 03:43:57;;;;;;;7.97;5.13;;;;;;;18.79;78.92;100170.38;4994964;28;20121;-79
2021/07/27 03:46:24;;;;;;;7.85;5.53;;;;;;;18.78;79.12;100166.00;4976426;28;20038;-81
2021/07/27 03:48:51;;;;;;;9.18;5.30;;;;;;;18.77;79.17;100164.28;4993126;28;20302;-80
2021/07/27 03:51:17;;;;;;;6.85;5.25;;;;;;;18.76;79.27;100160.75;4994196;28;20043;-83
2021/07/27 03:53:44;;;;;;;17.52;5.35;;;;;;;18.76;79.30;100163.44;4995809;28;20086;-83
2021/07/27 03:56:11;;;;;;;7.50;5.43;;;;;;;18.78;79.60;100157.94;4989595;28;20061;-80
2021/07/27 03:58:38;;;;;;;7.55;5.10;;;;;;;18.78;79.57;100163.31;4994336;28;20049;-82
2021/07/27 04:01:06;;;;;;;7.88;5.05;;;;;;;18.79;79.55;100159.66;4990951;28;20054;-81
2021/07/27 04:03:33;;;;;;;8.43;5.28;;;;;;;18.81;79.70;100165.75;4997675;28;20053;-82
2021/07/27 04:06:00;;;;;;;6.85;5.15;;;;;;;18.82;79.36;100164.78;5003008;28;20057;-82
2021/07/27 04:08:27;;;;;;;6.50;4.97;;;;;;;18.80;79.54;100167.56;4994673;28;21699;-81
2021/07/27 04:10:56;;;;;;;10.23;5.38;;;;;;;18.77;79.35;100177.72;4992177;28;20057;-80
2021/07/27 04:13:25;;;;;;;8.80;4.50;;;;;;;18.75;79.61;100182.34;4999110;28;20115;-83
2021/07/27 04:15:52;;;;;;;7.63;5.10;;;;;;;18.74;79.38;100176.13;4999421;28;20046;-83
2021/07/27 04:18:18;;;;;;;7.55;4.97;;;;;;;18.77;79.49;100175.03;5001131;28;20038;-82
2021/07/27 04:20:45;;;;;;;7.35;4.93;;;;;;;18.79;79.41;100178.44;4996823;28;20046;-83
2021/07/27 04:23:15;;;;;;;8.20;5.57;;;;;;;18.82;79.71;100178.19;4993775;28;20137;-82
2021/07/27 04:25:47;;;;;;;8.65;5.57;;;;;;;18.84;79.34;100178.91;4988503;28;20053;-83
2021/07/27 04:28:14;;;;;;;7.25;5.15;;;;;;;18.87;79.33;100182.19;4988751;28;20047;-82
2021/07/27 04:30:41;;;;;;;5.93;5.03;;;;;;;18.92;79.12;100189.81;4999327;28;20057;-82
2021/07/27 04:33:08;;;;;;;6.68;5.38;;;;;;;18.96;78.78;100188.59;4991286;28;20562;-82
2021/07/27 04:35:38;;;;;;;7.70;4.93;;;;;;;19.00;78.78;100181.13;4992007;28;20050;-82
2021/07/27 04:38:05;;;;;;;8.30;4.90;;;;;;;19.02;78.79;100184.53;4990764;28;20057;-82
2021/07/27 04:40:32;;;;;;;9.15;5.57;;;;;;;19.08;78.26;100184.84;4993855;28;20484;-82
2021/07/27 04:42:59;;;;;;;9.27;5.60;;;;;;;19.09;78.33;100185.72;4992545;28;20093;-82
2021/07/27 04:45:26;;;;;;;6.68;5.18;;;;;;;19.18;78.06;100193.84;4988820;28;20064;-81
2021/07/27 04:47:53;;;;;;;7.85;5.47;;;;;;;19.24;77.80;100201.34;4989413;28;20130;-82
2021/07/27 04:50:20;;;;;;;7.03;5.28;;;;;;;19.27;77.47;100187.66;4991294;28;20050;-81
2021/07/27 04:52:57;;;;;;;9.75;5.65;;;;;;;19.32;77.18;100187.28;4983289;28;20604;-80
2021/07/27 04:55:25;;;;;;;8.68;5.60;;;;;;;19.33;76.94;100180.94;4988242;28;20049;-82
2021/07/27 04:57:51;;;;;;;9.25;5.40;;;;;;;19.35;77.09;100180.78;4990012;28;20141;-81
2021/07/27 05:00:25;;;;;;;8.60;5.63;;;;;;;19.40;76.99;100190.13;4990750;28;20549;-80
2021/07/27 05:02:52;;;;;;;7.30;5.82;;;;;;;19.43;76.70;100189.88;4993618;28;20061;-80
2021/07/27 05:05:19;;;;;;;7.43;5.53;;;;;;;19.48;76.30;100181.44;4988834;28;20046;-80
2021/07/27 05:07:46;;;;;;;9.50;6.10;;;;;;;19.51;76.01;100178.50;4991174;28;20080;-81
2021/07/27 05:10:17;;;;;;;8.32;6.10;;;;;;;19.50;75.84;100174.13;5000089;28;20141;-82
2021/07/27 05:12:44;;;;;;;9.23;5.80;;;;;;;19.49;75.94;100170.59;4970197;28;20503;-82
2021/07/27 05:15:12;;;;;;;8.80;5.80;;;;;;;19.52;76.16;100175.66;4985009;28;20050;-80
2021/07/27 05:17:39;;;;;;;9.30;5.90;;;;;;;19.53;76.39;100174.69;4988852;28;20069;-81
2021/07/27 05:20:06;;;;;;;8.77;6.15;;;;;;;19.60;76.18;100170.47;4990147;28;20194;-82
2021/07/27 05:22:34;;;;;;;10.18;6.63;;;;;;;19.70;75.84;100173.19;4989720;28;20064;-82
2021/07/27 05:25:01;;;;;;;11.60;6.72;;;;;;;19.78;75.56;100178.75;4987002;28;20084;-82
2021/07/27 05:27:31;;;;;;;10.35;6.72;;;;;;;19.81;75.87;100180.31;4987585;28;20047;-81
2021/07/27 05:29:58;;;;;;;8.57;6.72;;;;;;;19.86;75.38;100178.06;4990087;28;20434;-82
2021/07/27 05:32:25;;;;;;;10.38;6.78;;;;;;;19.96;75.54;100178.97;4987325;28;20052;-81
2021/07/27 05:34:52;;;;;;;10.80;6.63;;;;;;;20.04;75.32;100178.25;4987705;28;20116;-81
2021/07/27 05:37:19;;;;;;;13.50;7.15;;;;;;;20.08;75.46;100177.84;4988449;28;20489;-82
2021/07/27 05:39:46;;;;;;;12.55;7.18;;;;;;;20.17;75.10;100179.69;4987096;28;20967;-81
2021/07/27 05:42:13;;;;;;;8.55;6.13;;;;;;;20.31;74.60;100178.44;4993967;28;20493;-82
2021/07/27 05:44:40;;;;;;;8.52;6.03;;;;;;;20.45;73.79;100170.03;4988652;28;20050;-81
2021/07/27 05:47:08;;;;;;;9.50;5.65;;;;;;;20.59;72.75;100169.59;4983477;28;20133;-81
2021/07/27 05:49:37;;;;;;;9.48;5.97;;;;;;;20.70;71.85;100170.44;4987063;28;20050;-81
2021/07/27 05:52:04;;;;;;;9.93;6.10;;;;;;;20.80;71.82;100176.66;4970669;28;20148;-81
2021/07/27 05:54:30;;;;;;;5.85;5.18;;;;;;;20.91;71.74;100176.53;4986828;28;20058;-82
2021/07/27 05:56:57;;;;;;;9.80;6.32;;;;;;;20.95;70.98;100172.53;4995319;28;20087;-82
2021/07/27 05:59:24;;;;;;;11.00;6.85;;;;;;;20.90;70.69;100183.75;4993152;28;20042;-80
2021/07/27 06:01:52;;;;;;;9.35;6.45;;;;;;;20.79;70.90;100183.88;4984867;28;20051;-81
2021/07/27 06:04:19;;;;;;;7.57;6.00;;;;;;;20.59;71.26;100175.00;4992781;28;20046;-81
2021/07/27 06:06:45;;;;;;;10.02;6.07;;;;;;;20.46;72.06;100182.47;4991752;28;20122;-82
2021/07/27 06:09:14;;;;;;;8.95;7.03;;;;;;;20.39;72.93;100184.03;4994898;28;20070;-83
2021/07/27 06:11:41;;;;;;;10.02;6.88;;;;;;;20.37;73.07;100179.78;4994814;28;20065;-82
2021/07/27 06:14:08;;;;;;;10.05;5.97;;;;;;;20.44;72.78;100179.09;4977951;28;20387;-83
2021/07/27 06:16:39;;;;;;;8.90;6.15;;;;;;;20.62;72.74;100179.22;4994758;28;20042;-82
2021/07/27 06:19:07;;;;;;;10.15;6.50;;;;;;;20.82;71.20;100182.75;4997631;28;20062;-81
2021/07/27 06:21:36;;;;;;;7.93;5.78;;;;;;;21.15;71.82;100181.44;5001085;28;20117;-84
2021/07/27 06:24:03;;;;;;;9.35;5.88;;;;;;;21.69;69.69;100180.75;4978256;28;20169;-81
2021/07/27 06:26:29;;;;;;;6.97;5.53;;;;;;;22.29;65.66;100179.31;5009145;28;20135;-82
2021/07/27 06:28:56;;;;;;;6.85;5.60;;;;;;;22.75;63.53;100172.84;4991510;28;20125;-81
2021/07/27 06:31:24;;;;;;;7.18;5.70;;;;;;;23.11;62.76;100172.00;4989609;28;20138;-81
2021/07/27 06:33:50;;;;;;;6.60;5.85;;;;;;;23.14;61.61;100175.19;4997526;28;20057;-80
2021/07/27 06:36:19;;;;;;;6.82;5.45;;;;;;;23.05;61.30;100171.59;4981935;28;20077;-80
2021/07/27 06:38:46;;;;;;;6.47;5.30;;;;;;;22.94;61.44;100171.00;5001051;28;20500;-81
2021/07/27 06:41:15;;;;;;;8.15;5.35;;;;;;;22.76;62.06;100173.69;5000803;28;20047;-82
2021/07/27 06:43:43;;;;;;;8.25;5.32;;;;;;;22.76;62.48;100171.00;5000668;28;20058;-80
2021/07/27 06:46:11;;;;;;;6.93;5.28;;;;;;;22.83;61.66;100166.69;5003438;28;20125;-82
2021/07/27 06:48:37;;;;;;;7.90;5.88;;;;;;;22.99;61.55;100161.41;5001185;28;20077;-83
2021/07/27 06:51:16;;;;;;;7.38;5.55;;;;;;;23.06;60.22;100176.00;5000179;28;20050;-82
2021/07/27 06:53:44;;;;;;;7.15;5.10;;;;;;;22.96;60.74;100185.22;5002371;28;20081;-83
2021/07/27 06:56:12;;;;;;;8.48;5.28;;;;;;;22.83;61.00;100190.13;4994440;28;20053;-83
2021/07/27 06:58:40;;;;;;;6.88;5.25;;;;;;;22.64;61.63;100200.09;5009977;28;20061;-80
2021/07/27 07:01:09;;;;;;;7.72;5.90;;;;;;;22.46;62.89;100206.47;5009635;28;20054;-80
2021/07/27 07:03:40;;;;;;;6.82;5.72;;;;;;;22.33;63.70;100206.84;5009897;28;20053;-82
2021/07/27 07:06:09;;;;;;;6.28;5.68;;;;;;;22.23;63.34;100204.19;4995510;28;20054;-82
2021/07/27 07:08:37;;;;;;;8.05;6.43;;;;;;;22.14;64.21;100206.94;4991445;28;20161;-83
2021/07/27 07:11:06;;;;;;;7.75;6.03;;;;;;;22.27;64.35;100207.44;4999353;28;20054;-82
2021/07/27 07:13:33;;;;;;;8.27;5.93;;;;;;;22.50;63.89;100203.31;5011689;28;20030;-84
2021/07/27 07:16:00;;;;;;;7.45;5.45;;;;;;;22.71;61.92;100198.44;5014940;28;20054;-82
2021/07/27 07:18:27;;;;;;;7.25;6.03;;;;;;;22.72;62.27;100199.28;4998271;28;20040;-81
2021/07/27 07:20:53;;;;;;;6.75;5.50;;;;;;;22.74;62.16;100198.16;5011592;28;20109;-82
2021/07/27 07:23:21;;;;;;;7.50;5.88;;;;;;;22.76;61.43;100195.28;5005434;28;20053;-82
2021/07/27 07:25:50;;;;;;;9.18;6.38;;;;;;;22.80;62.02;100201.28;5015449;28;20053;-83
2021/07/27 07:28:19;;;;;;;6.30;5.22;;;;;;;22.85;62.33;100204.34;5025040;28;20054;-81
2021/07/27 07:30:48;;;;;;;8.10;5.30;;;;;;;22.85;61.96;100193.53;5016640;28;20110;-82
2021/07/27 07:33:16;;;;;;;9.70;5.78;;;;;;;23.01;61.57;100190.97;5015218;28;20125;-81
2021/07/27 07:35:44;;;;;;;6.53;5.32;;;;;;;23.11;62.00;100202.53;4988726;28;20046;-82
2021/07/27 07:38:11;;;;;;;9.13;6.00;;;;;;;23.18;60.94;100192.78;4998305;28;20508;-84
2021/07/27 07:40:40;;;;;;;6.97;5.50;;;;;;;23.26;60.77;100183.91;4997132;28;20042;-82
2021/07/27 07:43:06;;;;;;;7.05;5.65;;;;;;;23.26;60.43;100195.56;4994776;28;20038;-83
2021/07/27 07:45:33;;;;;;;7.47;5.20;;;;;;;23.25;60.83;100196.56;4989899;28;20072;-83
2021/07/27 07:48:01;;;;;;;8.65;6.10;;;;;;;23.22;61.13;100204.13;4990894;28;20114;-83
2021/07/27 07:50:29;;;;;;;8.38;5.45;;;;;;;23.11;61.28;100201.69;4989738;28;20100;-81
2021/07/27 07:53:01;;;;;;;6.85;6.15;;;;;;;23.05;61.41;100195.06;4991172;28;20118;-82
2021/07/27 07:55:29;;;;;;;7.00;5.97;;;;;;;23.00;61.31;100209.03;4997775;28;20402;-81
2021/07/27 07:57:56;;;;;;;8.13;5.95;;;;;;;23.00;61.23;100210.88;4984980;28;20201;-82
2021/07/27 08:00:24;;;;;;;7.35;6.28;;;;;;;22.95;61.10;100199.72;4986787;28;20063;-82
2021/07/27 08:02:52;;;;;;;8.43;5.65;;;;;;;22.98;60.90;100211.03;5003186;28;20050;-82
2021/07/27 08:05:21;;;;;;;7.63;5.47;;;;;;;23.05;60.80;100212.13;5002933;28;20047;-82
2021/07/27 08:07:49;;;;;;;7.85;6.00;;;;;;;23.06;61.29;100216.50;4997215;28;20133;-83
2021/07/27 08:10:17;;;;;;;8.02;5.68;;;;;;;23.07;60.92;100211.97;4995337;28;20475;-82
2021/07/27 08:12:47;;;;;;;7.97;5.93;;;;;;;23.08;60.33;100214.50;4993104;28;20045;-81
2021/07/27 08:15:15;;;;;;;10.18;5.72;;;;;;;23.15;60.34;100221.97;4994687;28;20045;-82
2021/07/27 08:17:42;;;;;;;8.65;5.72;;;;;;;23.19;60.66;100218.81;4992840;28;20054;-80
2021/07/27 08:20:10;;;;;;;7.10;5.93;;;;;;;23.22;60.34;100218.50;4989179;28;20046;-84
2021/07/27 08:22:41;;;;;;;7.85;6.07;;;;;;;23.34;60.37;100214.53;4996275;28;20049;-80
2021/07/27 08:25:17;;;;;;;7.07;5.90;;;;;;;23.50;59.02;100210.22;4994468;28;20510;-82
2021/07/27 08:27:46;;;;;;;7.05;5.57;;;;;;;23.53;59.25;100207.25;4995137;28;20489;-82
2021/07/27 08:30:17;;;;;;;8.85;6.95;;;;;;;23.40;59.13;100192.28;4994096;28;20042;-82
2021/07/27 08:32:52;;;;;;;6.78;5.80;;;;;;;23.54;59.64;100200.84;4997163;28;20084;-81
2021/07/27 08:35:21;;;;;;;6.50;5.32;;;;;;;23.60;59.15;100194.81;5004122;28;20058;-83
2021/07/27 08:37:50;;;;;;;8.45;6.00;;;;;;;23.69;58.50;100208.19;5003076;28;20043;-83
2021/07/27 08:40:19;;;;;;;7.40;6.55;;;;;;;23.71;58.33;100208.88;5007116;28;20050;-81
2021/07/27 08:42:46;;;;;;;8.25;6.05;;;;;;;23.68;58.52;100205.66;5008226;28;20058;-82
2021/07/27 08:45:20;;;;;;;8.63;5.88;;;;;;;23.78;59.28;100209.06;5005212;28;20104;-81
2021/07/27 08:47:49;;;;;;;8.40;6.55;;;;;;;24.03;59.32;100193.81;5001469;28;20474;-84
2021/07/27 08:50:17;;;;;;;8.30;6.07;;;;;;;24.31;56.91;100202.56;4999185;28;20050;-80
2021/07/27 08:52:45;;;;;;;7.93;6.07;;;;;;;24.44;56.48;100209.19;4998645;28;20058;-81
2021/07/27 08:55:13;;;;;;;6.68;5.95;;;;;;;24.59;55.82;100206.69;4994615;28;20046;-81
2021/07/27 08:57:54;;;;;;;7.55;6.03;;;;;;;24.67;55.08;100217.53;5004179;28;20062;-80
2021/07/27 09:00:21;;;;;;;7.05;6.13;;;;;;;24.74;55.61;100215.84;4978766;28;20508;-81
2021/07/27 09:02:50;;;;;;;7.38;6.28;;;;;;;24.67;55.26;100214.81;4995286;28;20042;-81
2021/07/27 09:05:17;;;;;;;7.03;5.47;;;;;;;24.53;56.08;100226.31;4994442;28;20054;-82
2021/07/27 09:07:43;;;;;;;7.95;6.15;;;;;;;24.51;56.02;100220.22;4997311;28;20112;-82
2021/07/27 09:10:18;;;;;;;8.10;5.85;;;;;;;24.55;56.42;100228.84;4979324;28;20081;-84
2021/07/27 09:12:55;;;;;;;8.63;6.20;;;;;;;24.51;55.61;100239.16;4999849;28;20114;-81
2021/07/27 09:15:25;;;;;;;8.55;5.75;;;;;;;24.55;55.93;100237.81;4993046;28;20046;-82
2021/07/27 09:17:53;;;;;;;8.32;6.45;;;;;;;24.70;55.33;100235.31;4999754;28;20133;-82
2021/07/27 09:20:46;;;;;;;7.75;6.40;;;;;;;24.79;54.99;100229.72;5002456;28;20057;-82
2021/07/27 09:23:13;;;;;;;9.38;6.40;;;;;;;24.91;54.62;100226.69;5000019;28;20054;-82
2021/07/27 09:25:45;;;;;;;7.90;6.03;;;;;;;24.82;54.59;100218.56;5001304;28;20057;-79
2021/07/27 09:28:15;;;;;;;12.18;7.43;;;;;;;24.80;55.39;100226.00;4988178;28;20050;-85
2021/07/27 09:30:44;;;;;;;9.57;6.13;;;;;;;24.76;55.73;100227.34;5005733;28;20038;-82
2021/07/27 09:33:12;;;;;;;7.82;6.53;;;;;;;24.80;55.56;100228.72;5005518;28;20097;-83
2021/07/27 09:35:41;;;;;;;9.32;7.70;;;;;;;24.71;55.23;100228.88;5001776;28;20048;-82
2021/07/27 09:38:10;;;;;;;9.63;7.25;;;;;;;24.56;55.97;100225.94;4994112;28;20061;-82
2021/07/27 09:40:53;;;;;;;7.95;6.95;;;;;;;24.47;55.69;100225.09;4972444;28;20056;-81
2021/07/27 09:43:41;;;;;;;8.18;6.85;;;;;;;24.42;55.93;100223.88;4988792;28;20054;-83
2021/07/27 09:46:10;;;;;;;7.78;5.93;;;;;;;24.41;55.84;100219.50;4994020;28;20061;-82
2021/07/27 09:48:41;;;;;;;7.53;6.72;;;;;;;24.46;55.63;100218.00;4989354;28;20144;-82
2021/07/27 09:51:09;;;;;;;9.13;6.43;;;;;;;24.60;56.03;100219.19;4993940;28;20069;-82
2021/07/27 09:53:38;;;;;;;8.43;7.10;;;;;;;24.60;55.40;100219.19;4995180;28;20065;-83
2021/07/27 09:56:07;;;;;;;7.38;6.50;;;;;;;24.71;56.10;100216.16;4985074;28;20050;-83
2021/07/27 09:58:34;;;;;;;8.70;6.53;;;;;;;24.84;55.51;100215.69;4999452;28;20110;-83
2021/07/27 10:01:16;;;;;;;7.05;6.35;;;;;;;24.93;54.85;100211.13;5005450;28;20046;-82
2021/07/27 10:03:49;;;;;;;10.43;7.50;;;;;;;25.00;54.72;100218.44;4984563;28;20065;-82
2021/07/27 10:06:27;;;;;;;7.72;6.93;;;;;;;25.02;54.54;100215.56;4998542;28;20043;-82
2021/07/27 10:09:02;;;;;;;8.75;6.40;;;;;;;25.09;55.00;100214.72;4993506;28;20050;-84
2021/07/27 10:11:43;;;;;;;8.05;7.20;;;;;;;25.24;54.16;100209.44;5007385;28;20050;-82
2021/07/27 10:14:21;;;;;;;7.60;6.63;;;;;;;25.49;54.16;100211.13;5008538;28;20120;-82
2021/07/27 10:17:01;;;;;;;10.30;6.88;;;;;;;25.60;52.49;100195.50;5006657;28;20145;-82
2021/07/27 10:19:58;;;;;;;9.13;7.07;;;;;;;25.64;51.54;100210.44;5014244;28;20129;-82
2021/07/27 10:22:32;;;;;;;8.38;6.95;;;;;;;25.71;51.24;100198.72;5011907;28;20058;-81
2021/07/27 10:25:14;;;;;;;9.25;6.70;;;;;;;25.90;51.45;100192.03;5018214;28;20118;-83
2021/07/27 10:27:52;;;;;;;8.98;6.90;;;;;;;26.10;51.19;100206.88;5013659;28;20279;-83
2021/07/27 10:30:33;;;;;;;9.23;6.68;;;;;;;26.24;50.88;100207.16;5015489;28;20046;-79
2021/07/27 10:33:02;;;;;;;8.50;6.45;;;;;;;26.34;49.81;100200.50;5007699;28;20054;-80
2021/07/27 10:35:42;;;;;;;8.05;6.82;;;;;;;26.39;49.82;100199.97;5020320;28;20051;-80
2021/07/27 10:38:10;;;;;;;9.07;7.20;;;;;;;26.34;49.54;100195.06;5014623;28;20069;-81
2021/07/27 10:40:40;;;;;;;7.53;6.63;;;;;;;26.36;49.96;100192.19;5006563;28;20524;-82
2021/07/27 10:43:28;;;;;;;7.72;6.70;;;;;;;26.28;49.62;100198.50;5003247;28;20105;-82
2021/07/27 10:46:01;;;;;;;6.68;5.97;;;;;;;26.21;50.06;100200.22;4984445;28;20047;-82
2021/07/27 10:48:35;;;;;;;11.85;6.90;;;;;;;26.10;50.77;100193.31;5004764;28;20050;-81
2021/07/27 10:51:09;;;;;;;8.65;7.35;;;;;;;26.14;51.11;100185.63;4997415;28;20066;-82
2021/07/27 10:53:37;;;;;;;7.68;6.70;;;;;;;26.17;50.37;100191.56;4996530;28;20065;-84
2021/07/27 10:56:10;;;;;;;7.20;6.50;;;;;;;26.14;49.67;100191.06;4999027;28;20046;-82
2021/07/27 10:58:43;;;;;;;8.07;7.28;;;;;;;25.94;50.22;100193.38;5005296;28;20054;-82
2021/07/27 11:01:11;;;;;;;8.55;7.22;;;;;;;25.63;51.46;100192.47;4991809;28;20050;-81
2021/07/27 11:03:41;;;;;;;12.23;8.82;;;;;;;25.52;52.73;100202.63;4994229;28;20133;-81
2021/07/27 11:06:08;;;;;;;19.33;8.40;;;;;;;25.60;52.46;100198.22;4998265;28;20066;-82
2021/07/27 11:08:35;;;;;;;9.60;7.70;;;;;;;25.62;53.11;100194.34;4992786;28;20117;-81
2021/07/27 11:11:09;;;;;;;11.30;7.97;;;;;;;25.62;52.49;100193.50;4998265;28;20134;-81
2021/07/27 11:13:37;;;;;;;9.77;7.25;;;;;;;25.64;52.61;100195.03;4995764;28;20042;-82
2021/07/27 11:16:05;;;;;;;9.93;7.57;;;;;;;25.72;52.29;100194.13;4995051;28;20054;-80
2021/07/27 11:18:32;;;;;;;9.05;7.70;;;;;;;25.69;52.06;100183.63;4990697;28;20039;-82
2021/07/27 11:20:59;;;;;;;10.40;7.20;;;;;;;25.66;52.20;100176.69;4995257;28;20074;-83
2021/07/27 11:23:33;;;;;;;9.90;7.18;;;;;;;25.45;52.84;100177.22;4994284;28;20047;-83
2021/07/27 11:26:02;;;;;;;9.15;7.15;;;;;;;25.32;52.87;100174.22;4997884;28;20092;-82
2021/07/27 11:28:36;;;;;;;9.98;7.63;;;;;;;25.33;53.07;100173.19;5006089;28;20050;-82
2021/07/27 11:31:15;;;;;;;8.55;7.15;;;;;;;25.46;53.57;100168.09;5014529;28;20053;-83
2021/07/27 11:33:50;;;;;;;9.43;7.80;;;;;;;25.82;51.98;100170.34;5010480;28;20058;-82
2021/07/27 11:36:24;;;;;;;9.23;7.80;;;;;;;26.00;51.49;100167.41;5010742;28;20497;-81
2021/07/27 11:39:04;;;;;;;8.70;7.78;;;;;;;26.08;51.41;100168.22;5003280;28;20081;-82
2021/07/27 11:41:32;;;;;;;10.00;7.50;;;;;;;26.16;51.25;100170.88;5007914;28;20065;-83
2021/07/27 11:43:59;;;;;;;8.52;7.60;;;;;;;26.23;50.71;100167.47;5015456;28;20046;-84
2021/07/27 11:46:35;;;;;;;11.15;7.90;;;;;;;26.16;50.55;100165.44;4996899;28;20042;-83
2021/07/27 11:49:07;;;;;;;8.27;7.38;;;;;;;26.15;50.74;100152.06;5008898;28;20050;-80
2021/07/27 11:51:34;;;;;;;8.25;7.35;;;;;;;26.26;50.26;100157.09;4995639;28;20050;-82